Xenia, Illinois
Current Conditions -  °F | °C
As of 2:55 PM on Thursday 18 Dec 2014 (Local Time) from KFOA Reporting Station
Clear Clear  
Wind Chill: 31°   Ceiling: Unl
Heat Index: 31°   Visibility: 7mi
Dew Point: 25°   Wind: 3mph
Humidity: 77%   Direction: 350°N
Pressure: 30.25"   Gusts: NA
Location:  38.64°N, 88.63°W
Report Text: KFOA 182055Z AUTO 35003KT 7SM CLR 00/M04 A3025 RMK AO2 T10051040
Loading
Personal Weather Stations






























Interactive Weather Map New forecast layout! Learn more

10-Day Weather Forecast

Advertisements
Track Severe Weather on mobile